Lulu Pass Weather Station

This weather station is located at 10020ft near Lulu Pass at the head of Fisher Creek. This data can be used with temperature and precipitation data from the Fisher Creek SNOTEL site. This data can be viewed directly on datagarrison.com

Elevation
10020ft
Jump to table bottom
Date Time Temperature
deg F
RH, % Wind Speed Wind Gust Wind Direction
12/02/22 20:00 -3.1 86 16 33 SW - 212
12/02/22 19:00 -2.2 86 10 29 SW - 237
12/02/22 18:00 -2.4 86 9 27 SW - 229
12/02/22 17:00 -2.0 86 14 33 SW - 229
12/02/22 16:00 -1.7 86 15 29 SW - 225
12/02/22 15:00 -1.0 86 13 28 SW - 220
12/02/22 14:00 -0.4 86 10 24 SW - 236
12/02/22 13:00 -0.2 86 11 28 W - 254
12/02/22 12:00 -0.8 86 16 31 W - 263
12/02/22 11:00 -2.2 86 16 36 W - 267
12/02/22 10:00 -1.9 86 20 39 W - 278
12/02/22 09:00 -2.7 86 17 33 W - 275
12/02/22 08:00 -1.3 86 16 34 W - 275
12/02/22 07:00 0.0 87 19 27 NW - 303
12/02/22 06:00 0.2 87 23 32 NW - 313
12/02/22 05:00 0.8 87 23 36 NW - 313
12/02/22 04:00 4.0 88 19 28 NW - 300
12/02/22 03:00 5.3 89 22 31 NW - 300
12/02/22 02:00 7.5 89 19 24 NW - 309
12/02/22 01:00 8.4 90 21 28 NW - 316
12/02/22 00:00 9.3 90 19 32 NW - 310
12/01/22 23:00 15.5 92 13 31 SW - 213
12/01/22 22:00 16.1 92 16 42 SW - 222
12/01/22 21:00 16.9 92 10 27 SW - 243
12/01/22 20:00 17.2 92 14 35 SW - 216
12/01/22 19:00 17.1 92 14 36 SW - 209
12/01/22 18:00 17.1 92 13 34 SW - 216
12/01/22 17:00 17.2 92 17 50 SW - 204
12/01/22 16:00 17.2 92 21 47 S - 194
12/01/22 15:00 17.4 92 17 43 S - 201
12/01/22 14:00 17.4 92 22 44 S - 191
12/01/22 13:00 17.8 92 23 51 S - 181
12/01/22 12:00 17.2 92 23 50 S - 184
12/01/22 11:00 17.1 91 25 54 S - 184
12/01/22 10:00 16.7 91 24 50 S - 185
12/01/22 09:00 16.3 91 24 45 S - 184
12/01/22 08:00 16.0 91 26 52 S - 183
12/01/22 07:00 15.7 91 28 51 S - 177
12/01/22 06:00 15.6 91 26 47 S - 185
12/01/22 05:00 15.1 91 22 43 S - 187
12/01/22 04:00 14.5 91 23 51 S - 188
12/01/22 03:00 14.3 91 21 42 S - 187
12/01/22 02:00 13.6 91 23 48 S - 184
12/01/22 01:00 13.3 91 20 46 S - 178
12/01/22 00:00 13.0 91 19 40 S - 181
11/30/22 23:00 12.9 91 20 38 S - 184
11/30/22 22:00 12.9 91 16 36 S - 185
11/30/22 21:00 12.8 90 17 38 S - 194
11/30/22 20:00 13.1 91 24 44 S - 190
11/30/22 19:00 13.0 91 24 43 S - 188